sensor_id;sensor_type;location;lat;lon;timestamp;temperature;humidity
11152;DHT22;5630;49.342;10.802;2022-08-01T00:00:37;21.30;99.90
11152;DHT22;5630;49.342;10.802;2022-08-01T00:03:03;21.30;99.90
11152;DHT22;5630;49.342;10.802;2022-08-01T00:05:29;21.30;99.90
11152;DHT22;5630;49.342;10.802;2022-08-01T00:07:55;21.30;99.90
11152;DHT22;5630;49.342;10.802;2022-08-01T00:10:20;21.30;99.90
11152;DHT22;5630;49.342;10.802;2022-08-01T00:12:46;21.30;99.90
11152;DHT22;5630;49.342;10.802;2022-08-01T00:15:14;21.30;99.90
11152;DHT22;5630;49.342;10.802;2022-08-01T00:17:41;21.30;99.90
11152;DHT22;5630;49.342;10.802;2022-08-01T00:20:09;21.30;99.90
11152;DHT22;5630;49.342;10.802;2022-08-01T00:22:35;21.30;99.90
11152;DHT22;5630;49.342;10.802;2022-08-01T00:25:02;21.30;99.90
11152;DHT22;5630;49.342;10.802;2022-08-01T00:27:28;21.30;99.90
11152;DHT22;5630;49.342;10.802;2022-08-01T00:29:54;21.20;99.90
11152;DHT22;5630;49.342;10.802;2022-08-01T00:32:19;21.20;99.90
11152;DHT22;5630;49.342;10.802;2022-08-01T00:34:45;21.30;99.90
11152;DHT22;5630;49.342;10.802;2022-08-01T00:37:11;21.20;99.90
11152;DHT22;5630;49.342;10.802;2022-08-01T00:39:36;21.20;99.90
11152;DHT22;5630;49.342;10.802;2022-08-01T00:42:10;21.20;99.90
11152;DHT22;5630;49.342;10.802;2022-08-01T00:44:36;21.20;99.90
11152;DHT22;5630;49.342;10.802;2022-08-01T00:47:03;21.10;99.90
11152;DHT22;5630;49.342;10.802;2022-08-01T00:49:29;21.10;99.90
11152;DHT22;5630;49.342;10.802;2022-08-01T00:51:55;21.10;99.90
11152;DHT22;5630;49.342;10.802;2022-08-01T00:54:22;21.10;99.90
11152;DHT22;5630;49.342;10.802;2022-08-01T00:56:48;21.00;99.90
11152;DHT22;5630;49.342;10.802;2022-08-01T00:59:17;21.00;99.90
11152;DHT22;5630;49.342;10.802;2022-08-01T01:01:43;21.00;99.90
11152;DHT22;5630;49.342;10.802;2022-08-01T01:04:09;21.00;99.90
11152;DHT22;5630;49.342;10.802;2022-08-01T01:12:27;20.90;99.90
11152;DHT22;5630;49.342;10.802;2022-08-01T01:17:31;20.80;99.90
11152;DHT22;5630;49.342;10.802;2022-08-01T01:20:00;20.80;99.90
11152;DHT22;5630;49.342;10.802;2022-08-01T01:28:29;20.70;99.90
11152;DHT22;5630;49.342;10.802;2022-08-01T01:30:57;20.70;99.90
11152;DHT22;5630;49.342;10.802;2022-08-01T01:33:25;20.60;99.90
11152;DHT22;5630;49.342;10.802;2022-08-01T01:35:59;20.60;99.90
11152;DHT22;5630;49.342;10.802;2022-08-01T01:38:29;20.60;99.90
11152;DHT22;5630;49.342;10.802;2022-08-01T01:40:57;20.60;99.90
11152;DHT22;5630;49.342;10.802;2022-08-01T01:43:24;20.60;99.90
11152;DHT22;5630;49.342;10.802;2022-08-01T01:45:52;20.50;99.90
11152;DHT22;5630;49.342;10.802;2022-08-01T01:48:19;20.50;99.90
11152;DHT22;5630;49.342;10.802;2022-08-01T01:50:46;20.50;99.90
11152;DHT22;5630;49.342;10.802;2022-08-01T01:53:14;20.50;99.90
11152;DHT22;5630;49.342;10.802;2022-08-01T01:55:43;20.50;99.90
11152;DHT22;5630;49.342;10.802;2022-08-01T01:58:12;20.50;99.90
11152;DHT22;5630;49.342;10.802;2022-08-01T02:00:40;20.50;99.90
11152;DHT22;5630;49.342;10.802;2022-08-01T02:03:09;20.40;99.90
11152;DHT22;5630;49.342;10.802;2022-08-01T02:05:36;20.40;99.90
11152;DHT22;5630;49.342;10.802;2022-08-01T02:08:04;20.40;99.90
11152;DHT22;5630;49.342;10.802;2022-08-01T02:10:31;20.40;99.90
11152;DHT22;5630;49.342;10.802;2022-08-01T02:12:58;20.40;99.90
11152;DHT22;5630;49.342;10.802;2022-08-01T02:15:26;20.40;99.90
11152;DHT22;5630;49.342;10.802;2022-08-01T02:17:53;20.40;99.90
11152;DHT22;5630;49.342;10.802;2022-08-01T02:20:20;20.40;99.90
11152;DHT22;5630;49.342;10.802;2022-08-01T02:22:49;20.40;99.90
11152;DHT22;5630;49.342;10.802;2022-08-01T02:25:25;20.30;99.90
11152;DHT22;5630;49.342;10.802;2022-08-01T02:30:35;20.30;99.90
11152;DHT22;5630;49.342;10.802;2022-08-01T02:33:18;20.20;99.90
11152;DHT22;5630;49.342;10.802;2022-08-01T02:35:50;20.20;99.90
11152;DHT22;5630;49.342;10.802;2022-08-01T02:38:18;20.20;99.90
11152;DHT22;5630;49.342;10.802;2022-08-01T02:40:47;20.20;99.90
11152;DHT22;5630;49.342;10.802;2022-08-01T02:43:15;20.20;99.90
11152;DHT22;5630;49.342;10.802;2022-08-01T02:45:47;20.20;99.90
11152;DHT22;5630;49.342;10.802;2022-08-01T02:48:15;20.20;99.90
11152;DHT22;5630;49.342;10.802;2022-08-01T02:50:43;20.10;99.90
11152;DHT22;5630;49.342;10.802;2022-08-01T02:53:11;20.10;99.90
11152;DHT22;5630;49.342;10.802;2022-08-01T02:55:39;20.10;99.90
11152;DHT22;5630;49.342;10.802;2022-08-01T02:58:06;20.10;99.90
11152;DHT22;5630;49.342;10.802;2022-08-01T03:00:33;20.10;99.90
11152;DHT22;5630;49.342;10.802;2022-08-01T03:03:00;20.10;99.90
11152;DHT22;5630;49.342;10.802;2022-08-01T03:05:27;20.00;99.90
11152;DHT22;5630;49.342;10.802;2022-08-01T03:07:55;20.00;99.90
11152;DHT22;5630;49.342;10.802;2022-08-01T03:10:21;20.00;99.90
11152;DHT22;5630;49.342;10.802;2022-08-01T03:12:49;20.00;99.90
11152;DHT22;5630;49.342;10.802;2022-08-01T03:15:16;19.90;99.90
11152;DHT22;5630;49.342;10.802;2022-08-01T03:17:44;19.90;99.90
11152;DHT22;5630;49.342;10.802;2022-08-01T03:20:12;19.90;99.90
11152;DHT22;5630;49.342;10.802;2022-08-01T03:22:39;19.90;99.90
11152;DHT22;5630;49.342;10.802;2022-08-01T03:25:06;19.80;99.90
11152;DHT22;5630;49.342;10.802;2022-08-01T03:27:33;19.80;99.90
11152;DHT22;5630;49.342;10.802;2022-08-01T03:30:03;19.80;99.90
11152;DHT22;5630;49.342;10.802;2022-08-01T03:32:30;19.80;99.90
11152;DHT22;5630;49.342;10.802;2022-08-01T03:34:56;19.80;99.90
11152;DHT22;5630;49.342;10.802;2022-08-01T03:37:27;19.80;99.90
11152;DHT22;5630;49.342;10.802;2022-08-01T03:40:13;19.70;99.90
11152;DHT22;5630;49.342;10.802;2022-08-01T03:42:44;19.70;99.90
11152;DHT22;5630;49.342;10.802;2022-08-01T03:45:19;19.70;99.90
11152;DHT22;5630;49.342;10.802;2022-08-01T03:47:47;19.70;99.90
11152;DHT22;5630;49.342;10.802;2022-08-01T03:50:15;19.70;99.90
11152;DHT22;5630;49.342;10.802;2022-08-01T03:52:43;19.60;99.90
11152;DHT22;5630;49.342;10.802;2022-08-01T03:55:11;19.60;99.90
11152;DHT22;5630;49.342;10.802;2022-08-01T03:57:38;19.60;99.90
11152;DHT22;5630;49.342;10.802;2022-08-01T04:00:06;19.60;99.90
11152;DHT22;5630;49.342;10.802;2022-08-01T04:02:34;19.60;99.90
11152;DHT22;5630;49.342;10.802;2022-08-01T04:05:00;19.60;99.90
11152;DHT22;5630;49.342;10.802;2022-08-01T04:07:31;19.60;99.90
11152;DHT22;5630;49.342;10.802;2022-08-01T04:09:57;19.60;99.90
11152;DHT22;5630;49.342;10.802;2022-08-01T04:12:23;19.60;99.90
11152;DHT22;5630;49.342;10.802;2022-08-01T04:14:49;19.60;99.90
11152;DHT22;5630;49.342;10.802;2022-08-01T04:17:16;19.60;99.90
11152;DHT22;5630;49.342;10.802;2022-08-01T04:19:43;19.60;99.90
11152;DHT22;5630;49.342;10.802;2022-08-01T04:22:11;19.60;99.90
11152;DHT22;5630;49.342;10.802;2022-08-01T04:24:37;19.60;99.90
11152;DHT22;5630;49.342;10.802;2022-08-01T04:27:11;19.60;99.90
11152;DHT22;5630;49.342;10.802;2022-08-01T04:29:39;19.60;99.90
11152;DHT22;5630;49.342;10.802;2022-08-01T04:32:08;19.60;99.90
11152;DHT22;5630;49.342;10.802;2022-08-01T04:34:37;19.60;99.90
11152;DHT22;5630;49.342;10.802;2022-08-01T04:37:08;19.60;99.90
11152;DHT22;5630;49.342;10.802;2022-08-01T04:39:35;19.50;99.90
11152;DHT22;5630;49.342;10.802;2022-08-01T04:42:04;19.60;99.90
11152;DHT22;5630;49.342;10.802;2022-08-01T04:44:31;19.60;99.90
11152;DHT22;5630;49.342;10.802;2022-08-01T04:46:59;19.60;99.90
11152;DHT22;5630;49.342;10.802;2022-08-01T04:49:26;19.60;99.90
11152;DHT22;5630;49.342;10.802;2022-08-01T04:51:55;19.60;99.90
11152;DHT22;5630;49.342;10.802;2022-08-01T04:54:26;19.60;99.90
11152;DHT22;5630;49.342;10.802;2022-08-01T04:56:53;19.60;99.90
11152;DHT22;5630;49.342;10.802;2022-08-01T04:59:19;19.60;99.90
11152;DHT22;5630;49.342;10.802;2022-08-01T05:02:18;19.60;99.90
11152;DHT22;5630;49.342;10.802;2022-08-01T05:04:45;19.60;99.90
11152;DHT22;5630;49.342;10.802;2022-08-01T05:07:11;19.70;99.90
11152;DHT22;5630;49.342;10.802;2022-08-01T05:12:05;19.70;99.90
11152;DHT22;5630;49.342;10.802;2022-08-01T05:14:31;19.80;99.90
11152;DHT22;5630;49.342;10.802;2022-08-01T05:16:58;19.80;99.90
11152;DHT22;5630;49.342;10.802;2022-08-01T05:19:25;19.80;99.90
11152;DHT22;5630;49.342;10.802;2022-08-01T05:21:51;19.90;99.90
11152;DHT22;5630;49.342;10.802;2022-08-01T05:24:17;19.90;99.90
11152;DHT22;5630;49.342;10.802;2022-08-01T05:26:42;20.00;99.90
11152;DHT22;5630;49.342;10.802;2022-08-01T05:29:08;20.00;99.90
11152;DHT22;5630;49.342;10.802;2022-08-01T05:31:34;20.10;99.90
11152;DHT22;5630;49.342;10.802;2022-08-01T05:34:02;20.10;99.90
11152;DHT22;5630;49.342;10.802;2022-08-01T05:36:29;20.20;99.90
11152;DHT22;5630;49.342;10.802;2022-08-01T05:38:55;20.30;99.90
11152;DHT22;5630;49.342;10.802;2022-08-01T05:41:20;20.50;99.90
11152;DHT22;5630;49.342;10.802;2022-08-01T05:43:46;20.50;99.90
11152;DHT22;5630;49.342;10.802;2022-08-01T05:46:12;20.60;99.90
11152;DHT22;5630;49.342;10.802;2022-08-01T05:48:37;20.70;99.90
11152;DHT22;5630;49.342;10.802;2022-08-01T05:51:03;20.90;99.90
11152;DHT22;5630;49.342;10.802;2022-08-01T05:53:29;21.00;99.90
11152;DHT22;5630;49.342;10.802;2022-08-01T05:55:54;21.00;99.90
11152;DHT22;5630;49.342;10.802;2022-08-01T05:58:20;21.00;99.90
11152;DHT22;5630;49.342;10.802;2022-08-01T06:00:46;21.10;99.90
11152;DHT22;5630;49.342;10.802;2022-08-01T06:03:12;21.10;99.90
11152;DHT22;5630;49.342;10.802;2022-08-01T06:05:37;21.20;99.90
11152;DHT22;5630;49.342;10.802;2022-08-01T06:08:03;21.30;99.90
11152;DHT22;5630;49.342;10.802;2022-08-01T06:10:29;21.30;99.90
11152;DHT22;5630;49.342;10.802;2022-08-01T06:12:54;21.40;99.90
11152;DHT22;5630;49.342;10.802;2022-08-01T06:15:20;21.30;99.90
11152;DHT22;5630;49.342;10.802;2022-08-01T06:17:46;21.40;99.90
11152;DHT22;5630;49.342;10.802;2022-08-01T06:20:11;21.50;99.90
11152;DHT22;5630;49.342;10.802;2022-08-01T06:22:37;21.50;99.90
11152;DHT22;5630;49.342;10.802;2022-08-01T06:25:03;21.60;99.90
11152;DHT22;5630;49.342;10.802;2022-08-01T06:27:28;21.60;99.90
11152;DHT22;5630;49.342;10.802;2022-08-01T06:29:54;21.70;99.90
11152;DHT22;5630;49.342;10.802;2022-08-01T06:32:23;21.80;99.90
11152;DHT22;5630;49.342;10.802;2022-08-01T06:34:50;21.80;99.90
11152;DHT22;5630;49.342;10.802;2022-08-01T06:37:15;21.90;99.90
11152;DHT22;5630;49.342;10.802;2022-08-01T06:39:41;22.10;99.90
11152;DHT22;5630;49.342;10.802;2022-08-01T06:42:07;22.30;99.90
11152;DHT22;5630;49.342;10.802;2022-08-01T06:44:32;22.30;99.90
11152;DHT22;5630;49.342;10.802;2022-08-01T06:46:58;22.30;99.90
11152;DHT22;5630;49.342;10.802;2022-08-01T06:49:24;22.30;99.90
11152;DHT22;5630;49.342;10.802;2022-08-01T06:51:49;22.30;99.90
11152;DHT22;5630;49.342;10.802;2022-08-01T06:54:15;22.20;99.90
11152;DHT22;5630;49.342;10.802;2022-08-01T06:56:41;22.30;99.90
11152;DHT22;5630;49.342;10.802;2022-08-01T06:59:07;22.30;99.90
11152;DHT22;5630;49.342;10.802;2022-08-01T07:01:32;22.30;99.90
11152;DHT22;5630;49.342;10.802;2022-08-01T07:03:59;22.20;99.90
11152;DHT22;5630;49.342;10.802;2022-08-01T07:06:25;22.30;99.90
11152;DHT22;5630;49.342;10.802;2022-08-01T07:08:52;22.40;99.90
11152;DHT22;5630;49.342;10.802;2022-08-01T07:11:18;22.40;99.90
11152;DHT22;5630;49.342;10.802;2022-08-01T07:13:44;22.50;99.90
11152;DHT22;5630;49.342;10.802;2022-08-01T07:16:12;22.70;99.90
11152;DHT22;5630;49.342;10.802;2022-08-01T07:18:37;22.90;99.90
11152;DHT22;5630;49.342;10.802;2022-08-01T07:21:03;23.30;99.90
11152;DHT22;5630;49.342;10.802;2022-08-01T07:23:28;23.40;99.90
11152;DHT22;5630;49.342;10.802;2022-08-01T07:25:54;23.60;99.90
11152;DHT22;5630;49.342;10.802;2022-08-01T07:28:20;23.80;99.90
11152;DHT22;5630;49.342;10.802;2022-08-01T07:30:45;24.00;99.90
11152;DHT22;5630;49.342;10.802;2022-08-01T07:33:11;24.00;99.90
11152;DHT22;5630;49.342;10.802;2022-08-01T07:35:37;24.10;99.90
11152;DHT22;5630;49.342;10.802;2022-08-01T07:38:04;24.20;99.90
11152;DHT22;5630;49.342;10.802;2022-08-01T07:40:30;24.00;99.90
11152;DHT22;5630;49.342;10.802;2022-08-01T07:42:56;24.10;99.90
11152;DHT22;5630;49.342;10.802;2022-08-01T07:45:21;24.10;99.90
11152;DHT22;5630;49.342;10.802;2022-08-01T07:47:47;24.40;99.90
11152;DHT22;5630;49.342;10.802;2022-08-01T07:50:15;24.40;99.90
11152;DHT22;5630;49.342;10.802;2022-08-01T07:52:41;24.40;99.90
11152;DHT22;5630;49.342;10.802;2022-08-01T07:55:08;24.60;99.90
11152;DHT22;5630;49.342;10.802;2022-08-01T07:57:34;24.60;99.90
11152;DHT22;5630;49.342;10.802;2022-08-01T08:00:00;24.20;99.90
11152;DHT22;5630;49.342;10.802;2022-08-01T08:02:26;24.20;99.90
11152;DHT22;5630;49.342;10.802;2022-08-01T08:04:52;24.20;99.90
11152;DHT22;5630;49.342;10.802;2022-08-01T08:07:18;24.20;99.90
11152;DHT22;5630;49.342;10.802;2022-08-01T08:09:43;24.10;99.90
11152;DHT22;5630;49.342;10.802;2022-08-01T08:12:09;24.00;99.90
11152;DHT22;5630;49.342;10.802;2022-08-01T08:14:34;23.80;99.90
11152;DHT22;5630;49.342;10.802;2022-08-01T08:17:00;23.90;99.90
11152;DHT22;5630;49.342;10.802;2022-08-01T08:19:26;23.90;99.90
11152;DHT22;5630;49.342;10.802;2022-08-01T08:21:51;23.80;99.90
11152;DHT22;5630;49.342;10.802;2022-08-01T08:24:17;23.80;99.90
11152;DHT22;5630;49.342;10.802;2022-08-01T08:26:53;23.70;99.90
11152;DHT22;5630;49.342;10.802;2022-08-01T08:29:20;23.80;99.90
11152;DHT22;5630;49.342;10.802;2022-08-01T08:31:45;23.80;99.90
11152;DHT22;5630;49.342;10.802;2022-08-01T08:34:12;23.90;99.90
11152;DHT22;5630;49.342;10.802;2022-08-01T08:36:38;23.90;99.90
11152;DHT22;5630;49.342;10.802;2022-08-01T08:39:03;24.00;99.90
11152;DHT22;5630;49.342;10.802;2022-08-01T08:41:30;23.90;99.90
11152;DHT22;5630;49.342;10.802;2022-08-01T08:43:56;23.90;99.90
11152;DHT22;5630;49.342;10.802;2022-08-01T08:46:25;23.90;99.90
11152;DHT22;5630;49.342;10.802;2022-08-01T08:48:52;23.90;99.90
11152;DHT22;5630;49.342;10.802;2022-08-01T08:51:19;23.90;99.90
11152;DHT22;5630;49.342;10.802;2022-08-01T08:53:46;24.00;99.90
11152;DHT22;5630;49.342;10.802;2022-08-01T08:56:13;24.10;99.90
11152;DHT22;5630;49.342;10.802;2022-08-01T08:58:41;24.10;99.90
11152;DHT22;5630;49.342;10.802;2022-08-01T09:01:08;24.20;99.90
11152;DHT22;5630;49.342;10.802;2022-08-01T09:03:35;24.20;99.90
11152;DHT22;5630;49.342;10.802;2022-08-01T09:06:03;24.30;99.90
11152;DHT22;5630;49.342;10.802;2022-08-01T09:08:29;24.30;99.90
11152;DHT22;5630;49.342;10.802;2022-08-01T09:10:54;24.30;99.90
11152;DHT22;5630;49.342;10.802;2022-08-01T09:13:20;24.30;99.90
11152;DHT22;5630;49.342;10.802;2022-08-01T09:15:51;24.40;99.90
11152;DHT22;5630;49.342;10.802;2022-08-01T09:18:36;24.60;99.90
11152;DHT22;5630;49.342;10.802;2022-08-01T09:21:08;24.80;99.90
11152;DHT22;5630;49.342;10.802;2022-08-01T09:23:39;25.40;99.90
11152;DHT22;5630;49.342;10.802;2022-08-01T09:26:08;25.60;99.90
11152;DHT22;5630;49.342;10.802;2022-08-01T09:28:34;25.90;99.90
11152;DHT22;5630;49.342;10.802;2022-08-01T09:31:06;25.70;99.90
11152;DHT22;5630;49.342;10.802;2022-08-01T09:33:49;25.70;99.90
11152;DHT22;5630;49.342;10.802;2022-08-01T09:36:15;25.70;99.90
11152;DHT22;5630;49.342;10.802;2022-08-01T09:38:40;26.00;99.90
11152;DHT22;5630;49.342;10.802;2022-08-01T09:41:06;26.20;99.90
11152;DHT22;5630;49.342;10.802;2022-08-01T09:43:32;26.10;99.90
11152;DHT22;5630;49.342;10.802;2022-08-01T09:46:08;26.30;99.90
11152;DHT22;5630;49.342;10.802;2022-08-01T09:48:35;26.50;99.90
11152;DHT22;5630;49.342;10.802;2022-08-01T09:51:02;26.70;99.90
11152;DHT22;5630;49.342;10.802;2022-08-01T09:53:40;26.80;99.90
11152;DHT22;5630;49.342;10.802;2022-08-01T09:56:10;26.50;99.90
11152;DHT22;5630;49.342;10.802;2022-08-01T09:58:57;26.60;99.90
11152;DHT22;5630;49.342;10.802;2022-08-01T10:01:23;26.60;99.90
11152;DHT22;5630;49.342;10.802;2022-08-01T10:04:16;26.40;99.90
11152;DHT22;5630;49.342;10.802;2022-08-01T10:06:44;26.20;99.90
11152;DHT22;5630;49.342;10.802;2022-08-01T10:09:11;25.90;99.90
11152;DHT22;5630;49.342;10.802;2022-08-01T10:11:38;26.10;99.90
11152;DHT22;5630;49.342;10.802;2022-08-01T10:14:06;26.20;99.90
11152;DHT22;5630;49.342;10.802;2022-08-01T10:16:34;26.10;99.90
11152;DHT22;5630;49.342;10.802;2022-08-01T10:19:01;26.20;99.90
11152;DHT22;5630;49.342;10.802;2022-08-01T10:21:27;26.10;99.90
11152;DHT22;5630;49.342;10.802;2022-08-01T10:23:55;26.10;99.90
11152;DHT22;5630;49.342;10.802;2022-08-01T10:26:22;26.50;99.90
11152;DHT22;5630;49.342;10.802;2022-08-01T10:28:51;26.90;99.90
11152;DHT22;5630;49.342;10.802;2022-08-01T10:31:17;27.30;99.90
11152;DHT22;5630;49.342;10.802;2022-08-01T10:33:44;27.50;99.90
11152;DHT22;5630;49.342;10.802;2022-08-01T10:36:10;27.90;99.90
11152;DHT22;5630;49.342;10.802;2022-08-01T10:38:36;28.10;99.90
11152;DHT22;5630;49.342;10.802;2022-08-01T10:41:03;27.70;99.90
11152;DHT22;5630;49.342;10.802;2022-08-01T10:43:29;28.00;99.90
11152;DHT22;5630;49.342;10.802;2022-08-01T10:45:56;28.30;99.90
11152;DHT22;5630;49.342;10.802;2022-08-01T10:51:03;28.70;99.90
11152;DHT22;5630;49.342;10.802;2022-08-01T10:53:29;28.50;99.90
11152;DHT22;5630;49.342;10.802;2022-08-01T10:56:04;28.80;99.90
11152;DHT22;5630;49.342;10.802;2022-08-01T10:58:33;29.40;99.90
11152;DHT22;5630;49.342;10.802;2022-08-01T11:01:25;29.50;99.90
11152;DHT22;5630;49.342;10.802;2022-08-01T11:09:00;28.90;99.90
11152;DHT22;5630;49.342;10.802;2022-08-01T11:11:26;28.90;99.90
11152;DHT22;5630;49.342;10.802;2022-08-01T11:16:34;28.80;99.90
11152;DHT22;5630;49.342;10.802;2022-08-01T11:19:02;28.60;99.90
11152;DHT22;5630;49.342;10.802;2022-08-01T11:27:19;28.00;99.90
11152;DHT22;5630;49.342;10.802;2022-08-01T11:32:34;28.10;99.90
11152;DHT22;5630;49.342;10.802;2022-08-01T11:34:59;28.00;99.90
11152;DHT22;5630;49.342;10.802;2022-08-01T11:37:26;27.90;99.90
11152;DHT22;5630;49.342;10.802;2022-08-01T11:40:22;27.70;99.90
11152;DHT22;5630;49.342;10.802;2022-08-01T11:42:49;27.60;99.90
11152;DHT22;5630;49.342;10.802;2022-08-01T11:45:15;27.50;99.90
11152;DHT22;5630;49.342;10.802;2022-08-01T11:47:48;27.30;99.90
11152;DHT22;5630;49.342;10.802;2022-08-01T11:53:12;27.30;99.90
11152;DHT22;5630;49.342;10.802;2022-08-01T11:58:15;27.60;99.90
11152;DHT22;5630;49.342;10.802;2022-08-01T12:00:42;27.80;99.90
11152;DHT22;5630;49.342;10.802;2022-08-01T12:03:14;27.90;99.90
11152;DHT22;5630;49.342;10.802;2022-08-01T12:05:43;28.20;99.90
11152;DHT22;5630;49.342;10.802;2022-08-01T12:08:09;28.50;99.90
11152;DHT22;5630;49.342;10.802;2022-08-01T12:10:35;28.80;99.90
11152;DHT22;5630;49.342;10.802;2022-08-01T12:13:06;28.60;99.90
11152;DHT22;5630;49.342;10.802;2022-08-01T12:15:37;28.50;99.90
11152;DHT22;5630;49.342;10.802;2022-08-01T12:18:05;28.30;99.90
11152;DHT22;5630;49.342;10.802;2022-08-01T12:20:33;28.30;99.90
11152;DHT22;5630;49.342;10.802;2022-08-01T12:23:03;28.10;99.90
11152;DHT22;5630;49.342;10.802;2022-08-01T12:25:31;28.00;99.90
11152;DHT22;5630;49.342;10.802;2022-08-01T12:28:09;28.00;99.90
11152;DHT22;5630;49.342;10.802;2022-08-01T12:30:36;28.00;99.90
11152;DHT22;5630;49.342;10.802;2022-08-01T12:33:17;27.90;99.90
11152;DHT22;5630;49.342;10.802;2022-08-01T12:35:43;27.60;99.90
11152;DHT22;5630;49.342;10.802;2022-08-01T12:38:17;27.40;99.90
11152;DHT22;5630;49.342;10.802;2022-08-01T12:40:45;27.30;99.90
11152;DHT22;5630;49.342;10.802;2022-08-01T12:43:16;27.50;99.90
11152;DHT22;5630;49.342;10.802;2022-08-01T12:45:43;27.70;99.90
11152;DHT22;5630;49.342;10.802;2022-08-01T12:48:12;27.60;99.90
11152;DHT22;5630;49.342;10.802;2022-08-01T12:50:39;27.60;99.90
11152;DHT22;5630;49.342;10.802;2022-08-01T12:53:07;27.60;99.90
11152;DHT22;5630;49.342;10.802;2022-08-01T12:55:33;27.50;99.90
11152;DHT22;5630;49.342;10.802;2022-08-01T12:58:10;27.50;99.90
11152;DHT22;5630;49.342;10.802;2022-08-01T13:00:37;27.30;99.90
11152;DHT22;5630;49.342;10.802;2022-08-01T13:06:01;27.40;99.90
11152;DHT22;5630;49.342;10.802;2022-08-01T13:08:32;27.40;99.90
11152;DHT22;5630;49.342;10.802;2022-08-01T13:11:06;27.50;99.90
11152;DHT22;5630;49.342;10.802;2022-08-01T13:13:38;27.60;99.90
11152;DHT22;5630;49.342;10.802;2022-08-01T13:16:05;27.60;99.90
11152;DHT22;5630;49.342;10.802;2022-08-01T13:18:32;27.70;99.90
11152;DHT22;5630;49.342;10.802;2022-08-01T13:21:32;27.70;99.90
11152;DHT22;5630;49.342;10.802;2022-08-01T13:24:11;27.60;99.90
11152;DHT22;5630;49.342;10.802;2022-08-01T13:29:06;27.70;99.90
11152;DHT22;5630;49.342;10.802;2022-08-01T13:31:33;27.70;99.90
11152;DHT22;5630;49.342;10.802;2022-08-01T13:33:59;27.60;99.90
11152;DHT22;5630;49.342;10.802;2022-08-01T13:36:25;27.60;99.90
11152;DHT22;5630;49.342;10.802;2022-08-01T13:38:53;27.50;99.90
11152;DHT22;5630;49.342;10.802;2022-08-01T13:41:37;27.60;99.90
11152;DHT22;5630;49.342;10.802;2022-08-01T13:44:03;27.70;99.90
11152;DHT22;5630;49.342;10.802;2022-08-01T13:46:29;27.90;99.90
11152;DHT22;5630;49.342;10.802;2022-08-01T13:48:54;27.90;99.90
11152;DHT22;5630;49.342;10.802;2022-08-01T13:51:20;28.00;99.90
11152;DHT22;5630;49.342;10.802;2022-08-01T13:53:46;28.20;99.90
11152;DHT22;5630;49.342;10.802;2022-08-01T13:56:11;28.30;99.90
11152;DHT22;5630;49.342;10.802;2022-08-01T13:58:37;28.30;99.90
11152;DHT22;5630;49.342;10.802;2022-08-01T14:01:02;28.40;99.90
11152;DHT22;5630;49.342;10.802;2022-08-01T14:03:28;28.50;99.90
11152;DHT22;5630;49.342;10.802;2022-08-01T14:05:56;28.50;99.60
11152;DHT22;5630;49.342;10.802;2022-08-01T14:08:21;28.40;99.50
11152;DHT22;5630;49.342;10.802;2022-08-01T14:10:47;28.20;99.90
11152;DHT22;5630;49.342;10.802;2022-08-01T14:13:13;28.10;99.90
11152;DHT22;5630;49.342;10.802;2022-08-01T14:15:39;28.00;99.80
11152;DHT22;5630;49.342;10.802;2022-08-01T14:18:06;28.00;99.90
11152;DHT22;5630;49.342;10.802;2022-08-01T14:20:33;27.90;99.50
11152;DHT22;5630;49.342;10.802;2022-08-01T14:22:59;27.80;99.70
11152;DHT22;5630;49.342;10.802;2022-08-01T14:25:24;27.80;99.60
11152;DHT22;5630;49.342;10.802;2022-08-01T14:27:50;27.80;99.40
11152;DHT22;5630;49.342;10.802;2022-08-01T14:30:15;27.80;99.30
11152;DHT22;5630;49.342;10.802;2022-08-01T14:32:41;27.80;99.70
11152;DHT22;5630;49.342;10.802;2022-08-01T14:35:07;27.80;99.50
11152;DHT22;5630;49.342;10.802;2022-08-01T14:37:33;27.80;99.50
11152;DHT22;5630;49.342;10.802;2022-08-01T14:39:59;27.90;99.80
11152;DHT22;5630;49.342;10.802;2022-08-01T14:42:29;27.90;99.50
11152;DHT22;5630;49.342;10.802;2022-08-01T14:44:56;27.90;99.50
11152;DHT22;5630;49.342;10.802;2022-08-01T14:47:22;27.90;99.90
11152;DHT22;5630;49.342;10.802;2022-08-01T14:49:48;27.90;99.90
11152;DHT22;5630;49.342;10.802;2022-08-01T14:52:13;27.90;99.90
11152;DHT22;5630;49.342;10.802;2022-08-01T14:54:39;27.90;99.90
11152;DHT22;5630;49.342;10.802;2022-08-01T14:57:04;28.00;99.90
11152;DHT22;5630;49.342;10.802;2022-08-01T14:59:30;28.20;99.90
11152;DHT22;5630;49.342;10.802;2022-08-01T15:01:55;28.10;99.90
11152;DHT22;5630;49.342;10.802;2022-08-01T15:04:21;28.00;99.90
11152;DHT22;5630;49.342;10.802;2022-08-01T15:06:46;27.80;99.50
11152;DHT22;5630;49.342;10.802;2022-08-01T15:09:12;27.80;99.60
11152;DHT22;5630;49.342;10.802;2022-08-01T15:11:37;27.80;99.90
11152;DHT22;5630;49.342;10.802;2022-08-01T15:14:03;27.90;99.70
11152;DHT22;5630;49.342;10.802;2022-08-01T15:16:47;27.90;99.90
11152;DHT22;5630;49.342;10.802;2022-08-01T15:19:14;28.00;99.20
11152;DHT22;5630;49.342;10.802;2022-08-01T15:21:39;28.10;99.60
11152;DHT22;5630;49.342;10.802;2022-08-01T15:24:05;28.00;98.80
11152;DHT22;5630;49.342;10.802;2022-08-01T15:26:31;27.90;98.40
11152;DHT22;5630;49.342;10.802;2022-08-01T15:28:57;27.70;99.20
11152;DHT22;5630;49.342;10.802;2022-08-01T15:31:22;27.70;99.10
11152;DHT22;5630;49.342;10.802;2022-08-01T15:33:48;27.70;99.10
11152;DHT22;5630;49.342;10.802;2022-08-01T15:36:13;27.50;99.60
11152;DHT22;5630;49.342;10.802;2022-08-01T15:38:39;27.50;99.70
11152;DHT22;5630;49.342;10.802;2022-08-01T15:41:05;27.50;99.70
11152;DHT22;5630;49.342;10.802;2022-08-01T15:43:30;27.40;99.90
11152;DHT22;5630;49.342;10.802;2022-08-01T15:45:57;27.30;99.40
11152;DHT22;5630;49.342;10.802;2022-08-01T15:48:23;27.20;99.70
11152;DHT22;5630;49.342;10.802;2022-08-01T15:50:48;27.20;99.70
11152;DHT22;5630;49.342;10.802;2022-08-01T15:53:14;27.30;99.40
11152;DHT22;5630;49.342;10.802;2022-08-01T15:55:40;27.20;99.70
11152;DHT22;5630;49.342;10.802;2022-08-01T15:58:06;27.20;99.60
11152;DHT22;5630;49.342;10.802;2022-08-01T16:00:32;27.10;99.20
11152;DHT22;5630;49.342;10.802;2022-08-01T16:02:57;27.00;99.50
11152;DHT22;5630;49.342;10.802;2022-08-01T16:05:23;27.00;99.60
11152;DHT22;5630;49.342;10.802;2022-08-01T16:07:49;27.00;99.80
11152;DHT22;5630;49.342;10.802;2022-08-01T16:10:14;26.90;99.60
11152;DHT22;5630;49.342;10.802;2022-08-01T16:12:40;26.90;99.50
11152;DHT22;5630;49.342;10.802;2022-08-01T16:15:06;26.80;99.90
11152;DHT22;5630;49.342;10.802;2022-08-01T16:17:32;26.70;99.50
11152;DHT22;5630;49.342;10.802;2022-08-01T16:19:57;26.70;99.50
11152;DHT22;5630;49.342;10.802;2022-08-01T16:22:23;26.80;98.80